createdAt,value
2017-07-06T00:01:49.156Z,18.00
2017-07-06T00:04:16.710Z,18.00
2017-07-06T00:06:44.212Z,17.90
2017-07-06T00:09:11.830Z,17.90
2017-07-06T00:11:39.356Z,17.80
2017-07-06T00:14:07.666Z,17.80
2017-07-06T00:16:35.210Z,17.80
2017-07-06T00:19:03.502Z,17.70
2017-07-06T00:21:31.022Z,17.60
2017-07-06T00:23:58.543Z,17.60
2017-07-06T00:26:26.083Z,17.60
2017-07-06T00:28:53.626Z,17.50
2017-07-06T00:31:21.923Z,17.40
2017-07-06T00:33:49.455Z,17.40
2017-07-06T00:36:17.727Z,17.30
2017-07-06T00:38:46.031Z,17.30
2017-07-06T00:41:13.595Z,17.20
2017-07-06T00:43:41.098Z,17.20
2017-07-06T00:46:08.684Z,17.20
2017-07-06T00:48:36.991Z,17.10
2017-07-06T00:51:05.367Z,17.20
2017-07-06T00:53:32.894Z,17.10
2017-07-06T00:56:00.492Z,17.10
2017-07-06T00:58:28.055Z,17.10
2017-07-06T01:00:55.611Z,17.10
2017-07-06T01:03:23.171Z,17.00
2017-07-06T01:05:50.675Z,17.00
2017-07-06T01:08:18.291Z,16.90
2017-07-06T01:10:45.851Z,16.80
2017-07-06T01:13:13.386Z,16.80
2017-07-06T01:15:41.692Z,16.70
2017-07-06T01:18:09.243Z,16.70
2017-07-06T01:20:36.806Z,16.70
2017-07-06T01:23:04.366Z,16.70
2017-07-06T01:25:31.941Z,16.60
2017-07-06T01:27:59.493Z,16.60
2017-07-06T01:30:27.042Z,16.60
2017-07-06T01:32:54.604Z,16.60
2017-07-06T01:35:22.169Z,16.60
2017-07-06T01:37:49.727Z,16.50
2017-07-06T01:40:17.258Z,16.50
2017-07-06T01:42:45.567Z,16.40
2017-07-06T01:45:13.095Z,16.40
2017-07-06T01:47:41.409Z,16.40
2017-07-06T01:50:08.939Z,16.40
2017-07-06T01:52:37.238Z,16.30
2017-07-06T01:55:04.799Z,16.30
2017-07-06T01:57:32.336Z,16.20
2017-07-06T01:59:59.870Z,16.20
2017-07-06T02:02:27.415Z,16.20
2017-07-06T02:04:54.928Z,16.10
2017-07-06T02:07:22.490Z,16.10
2017-07-06T02:09:50.036Z,16.00
2017-07-06T02:12:17.539Z,16.10
2017-07-06T02:14:45.069Z,16.10
2017-07-06T02:17:12.627Z,16.00
2017-07-06T02:19:40.187Z,16.00
2017-07-06T02:22:07.710Z,16.10
2017-07-06T02:24:35.308Z,16.10
2017-07-06T02:27:02.887Z,16.00
2017-07-06T02:29:30.435Z,16.00
2017-07-06T02:31:57.991Z,16.00
2017-07-06T02:34:25.550Z,16.00
2017-07-06T02:36:53.059Z,16.00
2017-07-06T02:39:20.667Z,16.00
2017-07-06T02:41:48.198Z,16.00
2017-07-06T02:44:16.502Z,15.90
2017-07-06T02:46:44.066Z,15.90
2017-07-06T02:49:11.603Z,15.90
2017-07-06T02:51:39.879Z,15.90
2017-07-06T02:54:08.278Z,15.80
2017-07-06T02:56:35.807Z,15.80
2017-07-06T02:59:04.118Z,15.80
2017-07-06T03:01:31.628Z,15.80
2017-07-06T03:03:59.238Z,15.70
2017-07-06T03:06:26.756Z,15.70
2017-07-06T03:08:54.283Z,15.70
2017-07-06T03:11:21.810Z,15.70
2017-07-06T03:13:49.319Z,15.70
2017-07-06T03:16:16.935Z,15.60
2017-07-06T03:18:44.449Z,15.60
2017-07-06T03:21:11.960Z,15.60
2017-07-06T03:23:39.494Z,15.50
2017-07-06T03:26:07.795Z,15.50
2017-07-06T03:28:35.299Z,15.50
2017-07-06T03:31:02.911Z,15.50
2017-07-06T03:33:30.472Z,15.50
2017-07-06T03:35:57.979Z,15.50
2017-07-06T03:38:25.591Z,15.50
2017-07-06T03:40:53.150Z,15.50
2017-07-06T03:43:20.685Z,15.50
2017-07-06T03:45:48.987Z,15.40
2017-07-06T03:48:16.539Z,15.40
2017-07-06T03:50:44.046Z,15.40
2017-07-06T03:53:11.558Z,15.40
2017-07-06T03:55:39.086Z,15.40
2017-07-06T03:58:07.503Z,15.40
2017-07-06T04:00:35.015Z,15.40
2017-07-06T04:03:02.623Z,15.40
2017-07-06T04:05:30.183Z,15.50
2017-07-06T04:07:57.748Z,15.40
2017-07-06T04:10:25.261Z,15.50
2017-07-06T04:12:53.575Z,15.60
2017-07-06T04:15:21.139Z,15.60
2017-07-06T04:17:48.667Z,15.70
2017-07-06T04:20:16.979Z,15.70
2017-07-06T04:22:44.543Z,15.70
2017-07-06T04:25:12.095Z,15.70
2017-07-06T04:27:39.661Z,15.80
2017-07-06T04:30:07.220Z,15.80
2017-07-06T04:32:34.726Z,15.90
2017-07-06T04:35:02.254Z,15.90
2017-07-06T04:37:29.782Z,16.00
2017-07-06T04:39:57.287Z,16.00
2017-07-06T04:42:24.914Z,16.10
2017-07-06T04:44:52.480Z,16.10
2017-07-06T04:47:19.991Z,16.20
2017-07-06T04:49:47.523Z,16.30
2017-07-06T04:52:15.039Z,16.30
2017-07-06T04:54:42.614Z,16.40
2017-07-06T04:57:10.171Z,16.50
2017-07-06T04:59:37.732Z,16.50
2017-07-06T05:02:05.294Z,16.60
2017-07-06T05:04:32.803Z,16.70
2017-07-06T05:07:00.334Z,16.80
2017-07-06T05:09:27.870Z,16.80
2017-07-06T05:11:55.431Z,16.90
2017-07-06T05:14:23.091Z,16.90
2017-07-06T05:16:50.659Z,17.00
2017-07-06T05:19:18.160Z,17.10
2017-07-06T05:21:45.775Z,17.20
2017-07-06T05:24:13.339Z,17.30
2017-07-06T05:26:40.898Z,17.40
2017-07-06T05:29:08.430Z,17.40
2017-07-06T05:31:36.736Z,17.60
2017-07-06T05:34:04.295Z,17.60
2017-07-06T05:36:31.794Z,17.60
2017-07-06T05:38:59.319Z,17.70
2017-07-06T05:41:26.867Z,17.70
2017-07-06T05:43:54.426Z,17.80
2017-07-06T05:46:21.950Z,17.80
2017-07-06T05:48:49.450Z,17.90
2017-07-06T05:51:16.975Z,18.00
2017-07-06T05:53:45.242Z,18.20
2017-07-06T05:56:12.839Z,18.10
2017-07-06T05:58:40.507Z,18.30
2017-07-06T06:01:08.018Z,18.30
2017-07-06T06:03:35.641Z,18.40
2017-07-06T06:06:03.174Z,18.50
2017-07-06T06:08:30.751Z,18.50
2017-07-06T06:10:58.255Z,18.60
2017-07-06T06:13:25.788Z,18.60
2017-07-06T06:15:53.291Z,18.70
2017-07-06T06:18:21.603Z,18.80
2017-07-06T06:20:49.098Z,18.80
2017-07-06T06:23:16.722Z,18.80
2017-07-06T06:25:44.222Z,18.90
2017-07-06T06:28:11.939Z,18.90
2017-07-06T06:30:39.507Z,19.00
2017-07-06T06:33:07.006Z,19.00
2017-07-06T06:35:34.619Z,19.10
2017-07-06T06:38:02.119Z,19.20
2017-07-06T06:40:29.730Z,19.30
2017-07-06T06:42:57.298Z,19.40
2017-07-06T06:45:24.864Z,19.40
2017-07-06T06:47:52.386Z,19.50
2017-07-06T06:50:19.886Z,19.50
2017-07-06T06:52:47.440Z,19.60
2017-07-06T06:55:15.002Z,19.70
2017-07-06T06:57:42.558Z,19.80
2017-07-06T07:00:10.058Z,19.80
2017-07-06T07:02:37.680Z,19.90
2017-07-06T07:05:05.255Z,20.00
2017-07-06T07:07:32.800Z,20.10
2017-07-06T07:10:00.302Z,20.20
2017-07-06T07:12:27.820Z,20.30
2017-07-06T07:14:55.387Z,20.40
2017-07-06T07:17:22.891Z,20.50
2017-07-06T07:19:50.487Z,20.50
2017-07-06T07:22:18.092Z,20.60
2017-07-06T07:24:45.594Z,20.60
2017-07-06T07:27:13.902Z,20.70
2017-07-06T07:29:41.415Z,20.70
2017-07-06T07:32:08.915Z,20.80
2017-07-06T07:34:36.439Z,20.90
2017-07-06T07:37:04.764Z,21.00
2017-07-06T07:39:32.307Z,21.00
2017-07-06T07:41:59.866Z,21.00
2017-07-06T07:44:27.632Z,21.20
2017-07-06T07:46:55.199Z,21.20
2017-07-06T07:49:22.754Z,21.20
2017-07-06T07:51:50.280Z,21.30
2017-07-06T07:54:18.575Z,21.30
2017-07-06T07:56:46.151Z,21.30
2017-07-06T07:59:13.710Z,21.30
2017-07-06T08:01:41.242Z,21.30
2017-07-06T08:04:09.556Z,21.60
2017-07-06T08:06:37.063Z,21.50
2017-07-06T08:09:04.587Z,21.60
2017-07-06T08:11:32.138Z,21.70
2017-07-06T08:13:59.691Z,21.80
2017-07-06T08:16:27.191Z,21.90
2017-07-06T08:18:54.695Z,21.90
2017-07-06T08:21:22.262Z,21.90
2017-07-06T08:23:49.762Z,22.00
2017-07-06T08:26:17.283Z,22.10
2017-07-06T08:28:44.844Z,22.20
2017-07-06T08:31:12.400Z,22.30
2017-07-06T08:33:39.958Z,22.30
2017-07-06T08:36:07.523Z,22.30
2017-07-06T08:38:35.285Z,22.40
2017-07-06T08:41:02.842Z,22.40
2017-07-06T08:43:30.343Z,22.60
2017-07-06T08:45:57.965Z,22.60
2017-07-06T08:48:25.534Z,22.70
2017-07-06T08:50:53.071Z,22.80
2017-07-06T08:53:21.338Z,23.00
2017-07-06T08:55:49.640Z,23.10
2017-07-06T08:58:17.200Z,23.10
2017-07-06T09:00:44.860Z,23.10
2017-07-06T09:03:12.425Z,23.10
2017-07-06T09:05:39.982Z,23.10
2017-07-06T09:08:07.542Z,23.20
2017-07-06T09:10:35.067Z,23.20
2017-07-06T09:13:03.348Z,23.20
2017-07-06T09:15:31.619Z,23.30
2017-07-06T09:17:59.297Z,23.30
2017-07-06T09:20:27.694Z,23.40
2017-07-06T09:22:55.254Z,23.40
2017-07-06T09:25:22.751Z,23.50
2017-07-06T09:27:50.374Z,23.60
2017-07-06T09:30:17.871Z,23.60
2017-07-06T09:32:45.378Z,23.50
2017-07-06T09:35:13.674Z,23.70
2017-07-06T09:37:41.236Z,23.70
2017-07-06T09:40:08.796Z,23.80
2017-07-06T09:42:36.335Z,23.90
2017-07-06T09:45:04.686Z,24.20
2017-07-06T09:47:36.279Z,24.20
2017-07-06T09:50:03.848Z,24.30
2017-07-06T09:52:31.425Z,24.30
2017-07-06T09:54:59.128Z,24.30
2017-07-06T09:57:27.681Z,24.40
2017-07-06T09:59:55.535Z,24.40
2017-07-06T10:02:23.198Z,24.40
2017-07-06T10:04:50.962Z,24.60
2017-07-06T10:07:18.656Z,24.90
2017-07-06T10:09:46.492Z,25.10
2017-07-06T10:12:14.257Z,25.30
2017-07-06T10:14:42.021Z,25.50
2017-07-06T10:17:09.787Z,25.70
2017-07-06T10:19:37.586Z,25.70
2017-07-06T10:22:05.200Z,25.80
2017-07-06T10:24:32.759Z,25.80
2017-07-06T10:27:00.425Z,25.90
2017-07-06T10:29:27.979Z,25.90
2017-07-06T10:31:55.543Z,26.10
2017-07-06T10:34:23.107Z,26.30
2017-07-06T10:36:50.603Z,26.60
2017-07-06T10:39:18.223Z,26.80
2017-07-06T10:41:45.826Z,26.90
2017-07-06T10:44:13.355Z,26.90
2017-07-06T10:46:40.875Z,27.10
2017-07-06T10:49:09.139Z,27.30
2017-07-06T10:51:36.651Z,27.20
2017-07-06T10:54:04.147Z,27.30
2017-07-06T10:56:31.854Z,27.50
2017-07-06T10:58:59.353Z,27.50
2017-07-06T11:01:26.846Z,27.30
2017-07-06T11:03:55.155Z,26.80
2017-07-06T11:06:22.671Z,26.80
2017-07-06T11:08:50.376Z,26.80
2017-07-06T11:11:17.866Z,27.00
2017-07-06T11:13:45.367Z,27.00
2017-07-06T11:16:13.668Z,27.10
2017-07-06T11:18:41.271Z,27.10
2017-07-06T11:21:08.798Z,27.10
2017-07-06T11:23:36.291Z,27.00
2017-07-06T11:26:03.892Z,27.00
2017-07-06T11:28:32.292Z,27.00
2017-07-06T11:30:59.847Z,27.00
2017-07-06T11:33:27.506Z,26.80
2017-07-06T11:35:55.003Z,26.70
2017-07-06T11:38:22.527Z,26.70
2017-07-06T11:40:50.047Z,26.80
2017-07-06T11:43:17.650Z,26.70
2017-07-06T11:45:45.212Z,26.60
2017-07-06T11:48:12.771Z,26.60
2017-07-06T11:50:40.331Z,26.70
2017-07-06T11:53:07.891Z,26.90
2017-07-06T11:55:35.419Z,27.20
2017-07-06T11:58:02.908Z,27.70
2017-07-06T12:00:30.467Z,28.00
2017-07-06T12:02:57.965Z,28.00
2017-07-06T12:05:25.463Z,28.00
2017-07-06T12:07:53.776Z,28.30
2017-07-06T12:10:21.325Z,28.20
2017-07-06T12:12:48.850Z,28.50
2017-07-06T12:15:16.443Z,28.70
2017-07-06T12:17:44.011Z,28.90
2017-07-06T12:20:11.704Z,29.10
2017-07-06T12:22:40.047Z,29.40
2017-07-06T12:25:08.359Z,29.40
2017-07-06T12:27:35.985Z,29.40
2017-07-06T12:30:03.547Z,29.40
2017-07-06T12:32:31.079Z,29.40
2017-07-06T12:34:59.343Z,29.30
2017-07-06T12:37:26.836Z,29.30
2017-07-06T12:39:54.407Z,29.20
2017-07-06T12:42:21.904Z,29.10
2017-07-06T12:44:49.427Z,29.10
2017-07-06T12:47:16.976Z,29.10
2017-07-06T12:49:44.645Z,28.90
2017-07-06T12:52:12.575Z,28.90
2017-07-06T12:54:40.180Z,28.90
2017-07-06T12:57:07.695Z,28.90
2017-07-06T12:59:35.294Z,28.90
2017-07-06T13:02:02.815Z,28.80
2017-07-06T13:04:30.307Z,28.80
2017-07-06T13:06:57.879Z,28.90
2017-07-06T13:09:25.403Z,28.90
2017-07-06T13:11:53.703Z,28.40
2017-07-06T13:14:21.272Z,28.40
2017-07-06T13:16:48.772Z,28.10
2017-07-06T13:19:16.387Z,27.90
2017-07-06T13:21:43.947Z,27.80
2017-07-06T13:24:11.472Z,27.70
2017-07-06T13:26:39.738Z,27.30
2017-07-06T13:29:07.334Z,27.30
2017-07-06T13:31:34.858Z,27.10
2017-07-06T13:34:02.355Z,27.10
2017-07-06T13:36:29.923Z,27.10
2017-07-06T13:38:57.483Z,27.10
2017-07-06T13:41:25.043Z,27.10
2017-07-06T13:43:52.602Z,27.10
2017-07-06T13:46:20.134Z,27.30
2017-07-06T13:48:48.419Z,27.40
2017-07-06T13:51:16.683Z,27.50
2017-07-06T13:53:44.208Z,27.40
2017-07-06T13:56:11.743Z,27.50
2017-07-06T13:58:39.260Z,27.60
2017-07-06T14:01:07.695Z,27.60
2017-07-06T14:03:35.195Z,27.60
2017-07-06T14:06:02.794Z,27.60
2017-07-06T14:08:30.369Z,27.70
2017-07-06T14:10:57.911Z,27.70
2017-07-06T14:13:25.404Z,27.80
2017-07-06T14:15:53.135Z,27.90
2017-07-06T14:18:20.635Z,28.00
2017-07-06T14:20:48.138Z,28.10
2017-07-06T14:23:16.538Z,28.10
2017-07-06T14:25:44.094Z,28.10
2017-07-06T14:28:11.587Z,28.10
2017-07-06T14:30:39.116Z,28.10
2017-07-06T14:33:06.610Z,28.20
2017-07-06T14:35:34.231Z,28.20
2017-07-06T14:38:01.794Z,28.20
2017-07-06T14:40:29.327Z,28.10
2017-07-06T14:42:57.585Z,27.90
2017-07-06T14:45:25.091Z,27.90
2017-07-06T14:47:52.651Z,27.90
2017-07-06T14:50:20.176Z,27.90
2017-07-06T14:52:47.876Z,27.80
2017-07-06T14:55:15.375Z,27.80
2017-07-06T14:57:42.994Z,27.80
2017-07-06T15:00:10.554Z,27.90
2017-07-06T15:02:38.112Z,27.80
2017-07-06T15:05:05.602Z,27.80
2017-07-06T15:07:33.119Z,27.60
2017-07-06T15:10:01.383Z,27.50
2017-07-06T15:12:29.668Z,27.40
2017-07-06T15:14:58.600Z,27.30
2017-07-06T15:17:26.167Z,27.20
2017-07-06T15:19:53.690Z,27.20
2017-07-06T15:22:21.195Z,27.10
2017-07-06T15:24:48.811Z,27.10
2017-07-06T15:27:16.311Z,27.00
2017-07-06T15:29:44.034Z,26.90
2017-07-06T15:32:11.599Z,26.90
2017-07-06T15:34:39.096Z,26.80
2017-07-06T15:37:06.627Z,26.80
2017-07-06T15:39:34.175Z,26.80
2017-07-06T15:42:01.838Z,26.80
2017-07-06T15:44:29.391Z,26.80
2017-07-06T15:46:56.885Z,26.70
2017-07-06T15:49:24.406Z,26.70
2017-07-06T15:51:51.975Z,26.70
2017-07-06T15:54:19.508Z,26.80
2017-07-06T15:56:47.792Z,27.10
2017-07-06T15:59:16.124Z,27.30
2017-07-06T16:01:43.647Z,27.30
2017-07-06T16:04:11.176Z,27.60
2017-07-06T16:06:38.772Z,27.70
2017-07-06T16:09:06.331Z,27.90
2017-07-06T16:11:33.870Z,28.30
2017-07-06T16:14:02.171Z,29.10
2017-07-06T16:16:29.662Z,29.10
2017-07-06T16:18:57.287Z,29.40
2017-07-06T16:21:25.147Z,29.80
2017-07-06T16:23:52.683Z,30.30
2017-07-06T16:26:20.385Z,30.60
2017-07-06T16:28:47.920Z,30.80
2017-07-06T16:31:15.534Z,31.10
2017-07-06T16:33:44.174Z,31.30
2017-07-06T16:36:11.706Z,31.40
2017-07-06T16:38:39.221Z,31.70
2017-07-06T16:41:06.722Z,32.00
2017-07-06T16:43:34.240Z,32.30
2017-07-06T16:46:01.782Z,32.40
2017-07-06T16:48:29.341Z,32.60
2017-07-06T16:50:56.998Z,32.80
2017-07-06T16:53:24.490Z,32.80
2017-07-06T16:55:52.007Z,32.60
2017-07-06T16:58:20.394Z,32.60
2017-07-06T17:00:47.958Z,32.60
2017-07-06T17:03:15.493Z,32.60
2017-07-06T17:05:43.802Z,32.00
2017-07-06T17:08:11.302Z,32.00
2017-07-06T17:10:38.914Z,31.80
2017-07-06T17:13:06.404Z,31.50
2017-07-06T17:15:34.059Z,31.20
2017-07-06T17:18:01.594Z,30.90
2017-07-06T17:20:29.099Z,30.70
2017-07-06T17:22:56.818Z,30.40
2017-07-06T17:25:24.384Z,30.20
2017-07-06T17:27:52.050Z,29.90
2017-07-06T17:30:19.610Z,29.70
2017-07-06T17:32:47.166Z,29.50
2017-07-06T17:35:14.660Z,29.50
2017-07-06T17:37:42.194Z,29.40
2017-07-06T17:40:09.695Z,29.50
2017-07-06T17:42:37.190Z,29.70
2017-07-06T17:45:04.732Z,29.90
2017-07-06T17:47:33.038Z,30.60
2017-07-06T17:50:00.547Z,30.50
2017-07-06T17:52:28.164Z,30.70
2017-07-06T17:54:55.651Z,30.80
2017-07-06T17:57:23.168Z,30.80
2017-07-06T17:59:50.736Z,30.60
2017-07-06T18:02:18.257Z,30.50
2017-07-06T18:04:45.759Z,30.50
2017-07-06T18:07:13.310Z,30.40
2017-07-06T18:09:40.890Z,30.30
2017-07-06T18:12:08.436Z,30.10
2017-07-06T18:14:35.993Z,30.00
2017-07-06T18:17:03.510Z,29.70
2017-07-06T18:19:31.112Z,29.50
2017-07-06T18:21:58.680Z,29.30
2017-07-06T18:24:26.177Z,29.10
2017-07-06T18:26:53.716Z,28.80
2017-07-06T18:29:21.251Z,28.60
2017-07-06T18:31:48.755Z,28.40
2017-07-06T18:34:16.280Z,28.10
2017-07-06T18:36:43.828Z,27.90
2017-07-06T18:39:11.350Z,27.60
2017-07-06T18:41:38.949Z,27.40
2017-07-06T18:44:06.471Z,27.30
2017-07-06T18:46:35.512Z,26.80
2017-07-06T18:49:03.043Z,26.80
2017-07-06T18:51:31.308Z,26.50
2017-07-06T18:53:58.808Z,26.40
2017-07-06T18:56:26.363Z,26.30
2017-07-06T18:58:53.897Z,26.20
2017-07-06T19:01:22.195Z,25.90
2017-07-06T19:03:49.714Z,25.90
2017-07-06T19:06:17.215Z,25.70
2017-07-06T19:08:44.801Z,25.60
2017-07-06T19:11:13.150Z,25.30
2017-07-06T19:13:40.678Z,25.30
2017-07-06T19:16:08.267Z,25.20
2017-07-06T19:18:35.828Z,25.10
2017-07-06T19:21:03.918Z,24.90
2017-07-06T19:23:32.423Z,24.80
2017-07-06T19:26:00.985Z,24.60
2017-07-06T19:28:39.298Z,24.60
2017-07-06T19:31:07.889Z,24.50
2017-07-06T19:33:39.231Z,24.40
2017-07-06T19:36:08.585Z,24.30
2017-07-06T19:38:37.651Z,24.20
2017-07-06T19:41:09.552Z,24.10
2017-07-06T19:46:16.696Z,23.90
2017-07-06T19:48:45.365Z,23.70
2017-07-06T19:51:12.943Z,23.70
2017-07-06T19:53:40.448Z,23.60
2017-07-06T19:56:07.981Z,23.50
2017-07-06T19:58:35.512Z,23.40
2017-07-06T20:01:03.014Z,23.40
2017-07-06T20:03:30.801Z,23.30
2017-07-06T20:05:59.095Z,23.10
2017-07-06T20:08:26.619Z,23.10
2017-07-06T20:10:54.146Z,23.00
2017-07-06T20:13:21.639Z,23.00
2017-07-06T20:15:49.168Z,22.90
2017-07-06T20:18:16.695Z,22.80
2017-07-06T20:20:44.195Z,22.80
2017-07-06T20:23:11.819Z,22.80
2017-07-06T20:25:39.326Z,22.70
2017-07-06T20:28:06.828Z,22.70
2017-07-06T20:30:34.346Z,22.70
2017-07-06T20:33:01.957Z,22.70
2017-07-06T20:35:29.455Z,22.60
2017-07-06T20:37:57.071Z,22.60
2017-07-06T20:40:24.598Z,22.60
2017-07-06T20:42:52.295Z,22.50
2017-07-06T20:45:19.795Z,22.60
2017-07-06T20:47:47.290Z,22.60
2017-07-06T20:50:15.594Z,22.60
2017-07-06T20:52:43.155Z,22.50
2017-07-06T20:55:10.650Z,22.60
2017-07-06T20:57:38.289Z,22.60
2017-07-06T21:00:05.786Z,22.60
2017-07-06T21:02:33.282Z,22.60
2017-07-06T21:05:00.851Z,22.60
2017-07-06T21:07:28.346Z,22.60
2017-07-06T21:09:55.950Z,22.60
2017-07-06T21:12:24.225Z,22.60
2017-07-06T21:14:51.807Z,22.60
2017-07-06T21:17:19.334Z,22.40
2017-07-06T21:19:46.926Z,22.30
2017-07-06T21:22:14.418Z,22.20
2017-07-06T21:24:41.942Z,22.00
2017-07-06T21:27:09.466Z,21.80
2017-07-06T21:29:37.067Z,21.60
2017-07-06T21:32:04.559Z,21.50
2017-07-06T21:34:32.186Z,21.40
2017-07-06T21:36:59.846Z,21.20
2017-07-06T21:39:27.406Z,21.20
2017-07-06T21:41:54.932Z,21.10
2017-07-06T21:44:22.530Z,21.10
2017-07-06T21:46:50.045Z,21.00
2017-07-06T21:49:17.654Z,20.90
2017-07-06T21:51:45.146Z,20.80
2017-07-06T21:54:12.778Z,20.80
2017-07-06T21:56:40.332Z,20.60
2017-07-06T21:59:07.990Z,20.50
2017-07-06T22:01:35.519Z,20.30
2017-07-06T22:04:03.115Z,20.30
2017-07-06T22:06:30.616Z,20.20
2017-07-06T22:08:58.239Z,20.10
2017-07-06T22:11:25.799Z,20.10
2017-07-06T22:13:53.358Z,20.10
2017-07-06T22:16:20.872Z,20.10
2017-07-06T22:18:48.408Z,20.10
2017-07-06T22:21:15.906Z,20.00
2017-07-06T22:23:44.199Z,20.00
2017-07-06T22:26:11.742Z,19.90
2017-07-06T22:28:40.167Z,20.00
2017-07-06T22:31:07.819Z,20.00
2017-07-06T22:33:35.519Z,19.90
2017-07-06T22:36:04.215Z,19.80
2017-07-06T22:38:32.659Z,19.80
2017-07-06T22:41:00.325Z,19.80
2017-07-06T22:43:28.696Z,19.80
2017-07-06T22:45:56.211Z,19.80
2017-07-06T22:48:24.503Z,19.70
2017-07-06T22:50:52.855Z,19.70
2017-07-06T22:53:20.399Z,19.70
2017-07-06T22:55:47.935Z,19.50
2017-07-06T22:58:15.495Z,19.30
2017-07-06T23:00:43.092Z,19.20
2017-07-06T23:03:11.483Z,19.10
2017-07-06T23:05:38.991Z,19.10
2017-07-06T23:08:06.504Z,19.10
2017-07-06T23:10:34.799Z,19.10
2017-07-06T23:13:03.092Z,19.10
2017-07-06T23:15:30.652Z,19.10
2017-07-06T23:17:58.311Z,19.10
2017-07-06T23:20:25.811Z,19.10
2017-07-06T23:22:53.326Z,19.00
2017-07-06T23:25:20.992Z,18.90
2017-07-06T23:27:48.495Z,18.80
2017-07-06T23:30:16.211Z,18.80
2017-07-06T23:32:43.792Z,18.70
2017-07-06T23:35:11.339Z,18.70
2017-07-06T23:37:38.995Z,18.70
2017-07-06T23:40:06.523Z,18.70
2017-07-06T23:42:34.835Z,18.60
2017-07-06T23:45:02.362Z,18.60
2017-07-06T23:47:30.626Z,18.60
2017-07-06T23:49:58.231Z,18.60
2017-07-06T23:52:25.791Z,18.60
2017-07-06T23:54:53.318Z,18.50
2017-07-06T23:57:20.824Z,18.50
2017-07-06T23:59:48.360Z,18.50
